createdAt,value
2018-06-23T00:00:28.409Z,9.60
2018-06-23T00:02:55.620Z,14.23
2018-06-23T00:05:22.863Z,10.73
2018-06-23T00:07:50.032Z,7.07
2018-06-23T00:10:17.160Z,10.70
2018-06-23T00:12:44.262Z,10.03
2018-06-23T00:15:11.404Z,12.53
2018-06-23T00:17:38.526Z,9.77
2018-06-23T00:20:06.074Z,13.60
2018-06-23T00:22:33.339Z,11.33
2018-06-23T00:25:00.450Z,8.77
2018-06-23T00:27:27.610Z,8.47
2018-06-23T00:29:54.810Z,13.73
2018-06-23T00:32:21.933Z,10.63
2018-06-23T00:34:49.162Z,4.83
2018-06-23T00:37:16.266Z,12.77
2018-06-23T00:39:43.396Z,5.67
2018-06-23T00:42:10.516Z,7.47
2018-06-23T00:44:37.646Z,13.23
2018-06-23T00:47:04.814Z,12.13
2018-06-23T00:49:31.915Z,10.10
2018-06-23T00:51:59.051Z,5.60
2018-06-23T00:54:26.185Z,7.67
2018-06-23T00:56:53.385Z,13.50
2018-06-23T00:59:34.866Z,11.93
2018-06-23T01:02:02.073Z,18.10
2018-06-23T01:04:29.198Z,11.23
2018-06-23T01:06:56.382Z,9.77
2018-06-23T01:09:23.530Z,12.07
2018-06-23T01:11:50.670Z,12.63
2018-06-23T01:14:17.785Z,19.30
2018-06-23T01:16:44.917Z,10.40
2018-06-23T01:19:12.074Z,14.70
2018-06-23T01:21:39.214Z,16.17
2018-06-23T01:24:06.359Z,11.70
2018-06-23T01:26:33.483Z,13.20
2018-06-23T01:29:00.634Z,9.70
2018-06-23T01:31:27.799Z,7.87
2018-06-23T01:33:54.977Z,11.70
2018-06-23T01:36:22.215Z,13.40
2018-06-23T01:38:49.335Z,13.77
2018-06-23T01:41:16.438Z,16.93
2018-06-23T01:43:43.570Z,15.23
2018-06-23T01:46:10.682Z,10.07
2018-06-23T01:48:37.792Z,14.77
2018-06-23T01:51:05.195Z,10.67
2018-06-23T01:53:32.330Z,15.73
2018-06-23T01:55:59.442Z,12.13
2018-06-23T01:58:26.555Z,10.47
2018-06-23T02:00:53.716Z,11.77
2018-06-23T02:03:20.826Z,9.93
2018-06-23T02:05:48.184Z,10.33
2018-06-23T02:08:15.338Z,17.73
2018-06-23T02:10:42.447Z,15.50
2018-06-23T02:13:09.567Z,14.53
2018-06-23T02:15:42.575Z,12.20
2018-06-23T02:18:15.462Z,15.50
2018-06-23T02:20:48.547Z,15.47
2018-06-23T02:23:21.459Z,13.10
2018-06-23T02:25:54.302Z,14.07
2018-06-23T02:28:27.186Z,13.77
2018-06-23T02:31:00.048Z,15.67
2018-06-23T02:33:32.860Z,19.57
2018-06-23T02:36:00.039Z,17.77
2018-06-23T02:38:27.228Z,18.73
2018-06-23T02:40:54.393Z,21.63
2018-06-23T02:43:21.553Z,17.13
2018-06-23T02:45:48.683Z,19.77
2018-06-23T02:48:15.801Z,17.97
2018-06-23T02:50:42.926Z,15.00
2018-06-23T02:53:10.095Z,16.57
2018-06-23T02:55:37.259Z,20.67
2018-06-23T02:58:04.678Z,17.83
2018-06-23T03:00:31.804Z,21.20
2018-06-23T03:02:58.949Z,15.57
2018-06-23T03:05:26.071Z,18.93
2018-06-23T03:07:53.352Z,19.13
2018-06-23T03:10:20.470Z,17.43
2018-06-23T03:12:47.624Z,15.63
2018-06-23T03:15:14.771Z,21.93
2018-06-23T03:17:41.887Z,19.33
2018-06-23T03:20:09.054Z,16.57
2018-06-23T03:22:36.216Z,18.33
2018-06-23T03:25:03.415Z,19.50
2018-06-23T03:27:30.559Z,17.10
2018-06-23T03:29:57.719Z,18.83
2018-06-23T03:32:24.831Z,18.60
2018-06-23T03:34:51.942Z,13.33
2018-06-23T03:37:19.063Z,17.87
2018-06-23T03:39:46.170Z,16.87
2018-06-23T03:42:13.272Z,19.83
2018-06-23T03:44:40.367Z,15.63
2018-06-23T03:47:07.543Z,25.73
2018-06-23T03:49:34.759Z,15.63
2018-06-23T03:52:01.919Z,13.57
2018-06-23T03:54:29.048Z,19.67
2018-06-23T03:56:56.237Z,13.67
2018-06-23T03:59:23.474Z,17.37
2018-06-23T04:01:50.602Z,20.73
2018-06-23T04:04:17.715Z,21.03
2018-06-23T04:06:44.855Z,15.87
2018-06-23T04:09:12.018Z,16.37
2018-06-23T04:11:39.323Z,16.10
2018-06-23T04:14:06.584Z,17.20
2018-06-23T04:16:34.031Z,18.40
2018-06-23T04:19:01.169Z,16.23
2018-06-23T04:21:29.523Z,24.83
2018-06-23T04:23:56.914Z,21.17
2018-06-23T04:26:24.362Z,34.20
2018-06-23T04:28:51.504Z,26.13
2018-06-23T04:31:18.779Z,23.50
2018-06-23T04:33:46.020Z,29.53
2018-06-23T04:36:13.715Z,21.90
2018-06-23T04:38:40.827Z,25.30
2018-06-23T04:41:07.950Z,18.93
2018-06-23T04:43:35.079Z,24.07
2018-06-23T04:46:02.219Z,20.60
2018-06-23T04:48:29.401Z,20.63
2018-06-23T04:50:56.578Z,24.97
2018-06-23T04:53:23.692Z,23.17
2018-06-23T04:55:51.328Z,24.77
2018-06-23T04:58:18.443Z,21.53
2018-06-23T05:00:45.583Z,32.30
2018-06-23T05:03:12.834Z,23.23
2018-06-23T05:05:40.047Z,20.50
2018-06-23T05:08:07.451Z,21.27
2018-06-23T05:10:34.611Z,21.87
2018-06-23T05:13:01.745Z,22.20
2018-06-23T05:15:28.936Z,22.67
2018-06-23T05:17:56.035Z,23.53
2018-06-23T05:20:23.167Z,24.30
2018-06-23T05:22:50.281Z,22.83
2018-06-23T05:25:17.402Z,13.03
2018-06-23T05:27:44.519Z,23.27
2018-06-23T05:30:11.727Z,33.47
2018-06-23T05:32:38.816Z,25.37
2018-06-23T05:35:05.958Z,21.20
2018-06-23T05:37:33.101Z,19.03
2018-06-23T05:40:00.386Z,23.27
2018-06-23T05:42:27.482Z,23.30
2018-06-23T05:44:54.609Z,17.50
2018-06-23T05:47:22.119Z,19.33
2018-06-23T05:49:49.268Z,25.27
2018-06-23T05:52:16.432Z,19.23
2018-06-23T05:54:43.546Z,15.87
2018-06-23T05:57:10.656Z,14.70
2018-06-23T05:59:37.979Z,18.53
2018-06-23T06:02:05.330Z,23.70
2018-06-23T06:04:32.661Z,16.90
2018-06-23T06:06:59.859Z,24.73
2018-06-23T06:09:26.955Z,14.77
2018-06-23T06:11:54.081Z,17.47
2018-06-23T06:14:21.227Z,18.77
2018-06-23T06:17:54.027Z,18.23
2018-06-23T06:20:27.871Z,10.47
2018-06-23T06:22:55.007Z,12.63
2018-06-23T06:25:22.155Z,22.70
2018-06-23T06:27:49.492Z,25.20
2018-06-23T06:30:16.651Z,14.15
2018-06-23T06:32:43.766Z,17.05
2018-06-23T06:35:10.911Z,14.70
2018-06-23T06:37:38.094Z,17.85
2018-06-23T06:40:05.962Z,15.48
2018-06-23T06:42:33.135Z,14.55
2018-06-23T06:45:00.294Z,12.07
2018-06-23T06:47:27.459Z,13.38
2018-06-23T06:49:54.579Z,10.82
2018-06-23T06:52:22.122Z,11.88
2018-06-23T06:54:49.271Z,10.58
2018-06-23T06:57:16.478Z,13.00
2018-06-23T06:59:43.541Z,10.95
2018-06-23T07:02:10.699Z,14.83
2018-06-23T07:04:37.883Z,14.83
2018-06-23T07:07:05.188Z,16.73
2018-06-23T07:09:32.351Z,13.98
2018-06-23T07:11:59.487Z,16.02
2018-06-23T07:14:26.611Z,16.27
2018-06-23T07:16:53.864Z,12.82
2018-06-23T07:19:20.975Z,16.32
2018-06-23T07:21:48.199Z,16.52
2018-06-23T07:24:15.346Z,13.68
2018-06-23T07:26:42.464Z,11.80
2018-06-23T07:29:09.631Z,6.87
2018-06-23T07:31:36.840Z,12.23
2018-06-23T07:34:04.099Z,11.73
2018-06-23T07:36:31.221Z,8.73
2018-06-23T07:38:58.552Z,13.45
2018-06-23T07:41:25.702Z,7.25
2018-06-23T07:43:52.815Z,9.08
2018-06-23T07:46:19.994Z,7.50
2018-06-23T07:48:47.108Z,12.78
2018-06-23T07:51:14.383Z,10.65
2018-06-23T07:53:41.834Z,13.93
2018-06-23T07:56:09.271Z,10.65
2018-06-23T07:58:36.491Z,13.08
2018-06-23T08:01:04.095Z,9.43
2018-06-23T08:03:31.640Z,8.15
2018-06-23T08:05:58.852Z,10.28
2018-06-23T08:08:26.117Z,10.10
2018-06-23T08:10:53.259Z,6.25
2018-06-23T08:13:20.393Z,12.73
2018-06-23T08:15:47.520Z,8.83
2018-06-23T08:18:14.644Z,7.20
2018-06-23T08:20:41.766Z,6.67
2018-06-23T08:23:09.019Z,8.63
2018-06-23T08:25:36.179Z,8.53
2018-06-23T08:28:03.453Z,5.83
2018-06-23T08:30:31.285Z,8.70
2018-06-23T08:32:59.422Z,8.73
2018-06-23T08:35:28.695Z,8.18
2018-06-23T08:37:56.099Z,7.05
2018-06-23T08:40:23.255Z,8.25
2018-06-23T08:42:50.517Z,9.85
2018-06-23T08:45:17.902Z,9.23
2018-06-23T08:47:45.005Z,5.65
2018-06-23T08:50:12.162Z,9.45
2018-06-23T08:52:39.265Z,9.90
2018-06-23T08:55:06.408Z,8.35
2018-06-23T08:57:33.643Z,7.53
2018-06-23T09:00:00.804Z,8.95
2018-06-23T09:02:28.169Z,6.62
2018-06-23T09:04:55.347Z,5.67
2018-06-23T09:07:22.482Z,6.62
2018-06-23T09:09:49.603Z,7.58
2018-06-23T09:12:16.939Z,13.30
2018-06-23T09:14:44.047Z,10.18
2018-06-23T09:17:11.416Z,6.47
2018-06-23T09:19:38.697Z,5.85
2018-06-23T09:22:05.854Z,9.93
2018-06-23T09:24:33.040Z,7.62
2018-06-23T09:27:01.222Z,6.33
2018-06-23T09:29:28.402Z,8.48
2018-06-23T09:31:55.615Z,8.03
2018-06-23T09:34:22.748Z,6.03
2018-06-23T09:36:49.870Z,9.73
2018-06-23T09:39:17.232Z,11.15
2018-06-23T09:41:44.351Z,8.80
2018-06-23T09:44:11.483Z,7.05
2018-06-23T09:46:38.621Z,10.08
2018-06-23T09:49:05.784Z,10.18
2018-06-23T09:51:33.008Z,8.83
2018-06-23T09:54:00.217Z,9.13
2018-06-23T09:56:27.383Z,7.62
2018-06-23T09:58:54.657Z,8.43
2018-06-23T10:01:21.792Z,10.85
2018-06-23T10:03:48.926Z,9.05
2018-06-23T10:06:16.039Z,7.80
2018-06-23T10:08:43.191Z,6.80
2018-06-23T10:11:10.303Z,9.98
2018-06-23T10:13:37.457Z,7.80
2018-06-23T10:16:04.756Z,9.37
2018-06-23T10:18:31.927Z,10.17
2018-06-23T10:20:59.173Z,8.30
2018-06-23T10:23:26.297Z,11.07
2018-06-23T10:25:53.430Z,8.33
2018-06-23T10:28:20.563Z,7.90
2018-06-23T10:30:47.672Z,10.37
2018-06-23T10:33:14.787Z,8.43
2018-06-23T10:35:41.931Z,7.17
2018-06-23T10:38:09.343Z,12.80
2018-06-23T10:40:36.486Z,8.10
2018-06-23T10:43:03.647Z,7.67
2018-06-23T10:45:30.800Z,12.90
2018-06-23T10:47:57.959Z,7.40
2018-06-23T10:50:25.182Z,13.37
2018-06-23T10:52:52.471Z,9.60
2018-06-23T10:55:19.629Z,8.63
2018-06-23T10:57:46.796Z,9.40
2018-06-23T11:00:13.941Z,8.17
2018-06-23T11:02:41.170Z,10.07
2018-06-23T11:05:08.460Z,6.27
2018-06-23T11:07:35.708Z,10.07
2018-06-23T11:10:02.930Z,7.30
2018-06-23T11:12:30.045Z,8.93
2018-06-23T11:14:57.180Z,8.93
2018-06-23T11:17:24.359Z,5.17
2018-06-23T11:19:51.604Z,9.50
2018-06-23T11:22:18.809Z,5.13
2018-06-23T11:24:45.991Z,4.73
2018-06-23T11:27:13.119Z,10.10
2018-06-23T11:29:40.300Z,7.67
2018-06-23T11:32:07.463Z,12.43
2018-06-23T11:34:34.527Z,13.13
2018-06-23T11:37:01.719Z,12.67
2018-06-23T11:39:28.817Z,8.53
2018-06-23T11:41:56.615Z,7.43
2018-06-23T11:44:23.808Z,7.87
2018-06-23T11:46:51.468Z,3.63
2018-06-23T11:49:18.737Z,7.53
2018-06-23T11:51:45.887Z,8.10
2018-06-23T11:54:13.938Z,6.70
2018-06-23T11:56:41.071Z,8.10
2018-06-23T11:59:08.302Z,7.53
2018-06-23T12:01:35.442Z,4.03
2018-06-23T12:04:02.629Z,9.37
2018-06-23T12:06:29.772Z,6.23
2018-06-23T12:08:56.936Z,9.70
2018-06-23T12:11:24.140Z,6.40
2018-06-23T12:13:51.518Z,9.80
2018-06-23T12:16:19.050Z,12.73
2018-06-23T12:18:46.186Z,11.10
2018-06-23T12:21:13.335Z,12.50
2018-06-23T12:23:40.742Z,7.90
2018-06-23T12:26:07.916Z,5.73
2018-06-23T12:28:35.063Z,7.00
2018-06-23T12:31:02.175Z,8.50
2018-06-23T12:33:29.323Z,8.53
2018-06-23T12:35:56.547Z,9.30
2018-06-23T12:38:23.723Z,12.60
2018-06-23T12:40:50.878Z,8.73
2018-06-23T12:43:17.990Z,7.13
2018-06-23T12:45:45.115Z,5.33
2018-06-23T12:48:12.226Z,8.73
2018-06-23T12:50:39.472Z,8.87
2018-06-23T12:53:06.610Z,11.97
2018-06-23T12:55:33.757Z,6.30
2018-06-23T12:58:00.925Z,7.03
2018-06-23T13:00:28.065Z,4.97
2018-06-23T13:02:55.254Z,5.60
2018-06-23T13:05:22.465Z,4.07
2018-06-23T13:07:49.595Z,5.13
2018-06-23T13:10:16.777Z,6.20
2018-06-23T13:12:44.008Z,5.53
2018-06-23T13:15:11.187Z,5.50
2018-06-23T13:17:38.243Z,6.37
2018-06-23T13:20:05.391Z,8.53
2018-06-23T13:22:32.525Z,5.07
2018-06-23T13:24:59.664Z,7.30
2018-06-23T13:27:26.863Z,6.40
2018-06-23T13:29:54.121Z,10.40
2018-06-23T13:32:21.297Z,9.77
2018-06-23T13:34:48.468Z,10.67
2018-06-23T13:37:15.595Z,8.10
2018-06-23T13:39:42.749Z,7.53
2018-06-23T13:42:09.865Z,9.80
2018-06-23T13:44:37.002Z,8.43
2018-06-23T13:47:04.222Z,7.77
2018-06-23T13:49:31.328Z,6.40
2018-06-23T13:51:58.432Z,6.20
2018-06-23T13:54:25.627Z,9.87
2018-06-23T13:56:52.835Z,6.93
2018-06-23T13:59:20.339Z,8.80
2018-06-23T14:01:47.468Z,10.67
2018-06-23T14:04:14.698Z,4.47
2018-06-23T14:06:41.907Z,7.83
2018-06-23T14:09:10.400Z,10.83
2018-06-23T14:11:37.866Z,8.00
2018-06-23T14:14:05.067Z,7.53
2018-06-23T14:16:32.192Z,8.53
2018-06-23T14:18:59.320Z,9.20
2018-06-23T14:21:26.476Z,10.67
2018-06-23T14:23:53.705Z,9.23
2018-06-23T14:26:20.959Z,10.37
2018-06-23T14:28:48.102Z,10.97
2018-06-23T14:31:15.282Z,12.30
2018-06-23T14:33:42.351Z,7.70
2018-06-23T14:36:09.460Z,8.73
2018-06-23T14:38:36.581Z,11.57
2018-06-23T14:41:03.732Z,6.73
2018-06-23T14:43:30.923Z,7.17
2018-06-23T14:45:58.051Z,9.47
2018-06-23T14:48:25.283Z,9.80
2018-06-23T14:50:52.443Z,6.67
2018-06-23T14:53:19.753Z,8.40
2018-06-23T14:55:46.943Z,11.60
2018-06-23T14:58:14.183Z,11.20
2018-06-23T15:00:41.286Z,12.27
2018-06-23T15:03:08.394Z,8.60
2018-06-23T15:05:35.527Z,9.87
2018-06-23T15:08:14.534Z,8.93
2018-06-23T15:10:53.311Z,9.97
2018-06-23T15:13:20.499Z,9.80
2018-06-23T15:15:47.639Z,11.37
2018-06-23T15:18:14.799Z,7.70
2018-06-23T15:20:42.300Z,8.13
2018-06-23T15:23:09.460Z,7.27
2018-06-23T15:25:36.599Z,6.80
2018-06-23T15:28:03.778Z,8.87
2018-06-23T15:30:30.894Z,8.83
2018-06-23T15:32:58.061Z,8.00
2018-06-23T15:35:25.275Z,8.97
2018-06-23T15:37:52.826Z,8.40
2018-06-23T15:40:19.955Z,9.50
2018-06-23T15:42:47.117Z,4.90
2018-06-23T15:45:14.274Z,11.67
2018-06-23T15:47:41.592Z,9.40
2018-06-23T15:50:08.751Z,8.27
2018-06-23T15:52:35.861Z,6.10
2018-06-23T15:55:02.999Z,9.23
2018-06-23T15:57:30.161Z,7.43
2018-06-23T15:59:57.350Z,5.37
2018-06-23T16:02:24.652Z,4.50
2018-06-23T16:04:51.722Z,10.10
2018-06-23T16:07:19.112Z,6.07
2018-06-23T16:09:46.243Z,7.40
2018-06-23T16:12:13.342Z,8.23
2018-06-23T16:14:40.456Z,8.30
2018-06-23T16:17:07.568Z,5.67
2018-06-23T16:19:34.697Z,9.37
2018-06-23T16:22:01.898Z,8.17
2018-06-23T16:24:29.039Z,6.27
2018-06-23T16:26:56.223Z,5.70
2018-06-23T16:29:23.395Z,5.17
2018-06-23T16:31:50.530Z,4.47
2018-06-23T16:34:17.642Z,6.63
2018-06-23T16:36:44.791Z,9.83
2018-06-23T16:39:11.932Z,6.50
2018-06-23T16:41:39.188Z,7.03
2018-06-23T16:44:06.656Z,7.03
2018-06-23T16:46:34.147Z,3.83
2018-06-23T16:49:01.264Z,6.73
2018-06-23T16:51:28.467Z,10.00
2018-06-23T16:53:55.748Z,4.33
2018-06-23T16:56:22.927Z,5.57
2018-06-23T16:58:50.063Z,11.40
2018-06-23T17:01:17.163Z,11.57
2018-06-23T17:03:44.463Z,4.20
2018-06-23T17:06:11.515Z,7.23
2018-06-23T17:08:38.657Z,3.67
2018-06-23T17:11:05.827Z,7.27
2018-06-23T17:13:32.977Z,11.53
2018-06-23T17:16:00.166Z,10.70
2018-06-23T17:18:27.497Z,2.87
2018-06-23T17:20:54.714Z,6.60
2018-06-23T17:23:21.860Z,3.60
2018-06-23T17:25:48.971Z,8.43
2018-06-23T17:28:16.106Z,7.27
2018-06-23T17:30:43.233Z,6.77
2018-06-23T17:33:10.395Z,4.20
2018-06-23T17:35:37.529Z,5.20
2018-06-23T17:38:04.672Z,4.33
2018-06-23T17:40:31.794Z,6.40
2018-06-23T17:42:58.966Z,3.70
2018-06-23T17:45:26.160Z,7.20
2018-06-23T17:47:53.385Z,5.37
2018-06-23T17:50:20.535Z,8.33
2018-06-23T17:52:47.724Z,7.67
2018-06-23T17:55:15.073Z,4.63
2018-06-23T17:57:42.416Z,11.73
2018-06-23T18:00:09.335Z,8.37
2018-06-23T18:02:36.903Z,8.80
2018-06-23T18:05:04.103Z,3.33
2018-06-23T18:07:31.751Z,6.17
2018-06-23T18:09:58.945Z,7.87
2018-06-23T18:12:26.179Z,7.20
2018-06-23T18:14:53.395Z,9.07
2018-06-23T18:17:20.536Z,7.67
2018-06-23T18:19:47.694Z,9.57
2018-06-23T18:22:14.796Z,2.60
2018-06-23T18:24:41.912Z,7.07
2018-06-23T18:27:09.031Z,7.27
2018-06-23T18:29:36.155Z,8.33
2018-06-23T18:32:03.482Z,7.93
2018-06-23T18:34:30.631Z,9.03
2018-06-23T18:36:57.867Z,5.00
2018-06-23T18:39:25.076Z,7.20
2018-06-23T18:41:52.188Z,7.17
2018-06-23T18:44:19.316Z,8.80
2018-06-23T18:46:46.431Z,7.00
2018-06-23T18:49:13.582Z,5.47
2018-06-23T18:51:40.717Z,6.90
2018-06-23T18:54:07.873Z,5.30
2018-06-23T18:56:34.980Z,5.40
2018-06-23T18:59:02.088Z,7.20
2018-06-23T19:01:29.270Z,10.93
2018-06-23T19:03:56.433Z,10.63
2018-06-23T19:06:23.675Z,9.40
2018-06-23T19:08:50.884Z,10.27
2018-06-23T19:11:17.996Z,4.70
2018-06-23T19:13:45.112Z,4.47
2018-06-23T19:16:12.238Z,10.10
2018-06-23T19:18:39.346Z,6.77
2018-06-23T19:21:06.837Z,6.03
2018-06-23T19:23:33.942Z,7.63
2018-06-23T19:26:01.125Z,13.60
2018-06-23T19:28:28.440Z,11.87
2018-06-23T19:30:55.687Z,8.50
2018-06-23T19:33:22.832Z,6.00
2018-06-23T19:35:49.979Z,5.40
2018-06-23T19:38:17.097Z,10.53
2018-06-23T19:40:44.222Z,10.23
2018-06-23T19:43:11.354Z,6.73
2018-06-23T19:45:38.491Z,8.30
2018-06-23T19:48:05.611Z,9.10
2018-06-23T19:50:32.771Z,7.30
2018-06-23T19:52:59.899Z,6.43
2018-06-23T19:55:27.125Z,5.43
2018-06-23T19:57:54.451Z,9.70
2018-06-23T20:00:21.597Z,6.33
2018-06-23T20:02:48.747Z,9.30
2018-06-23T20:05:15.846Z,7.17
2018-06-23T20:07:42.956Z,11.47
2018-06-23T20:10:10.055Z,7.17
2018-06-23T20:12:37.180Z,9.10
2018-06-23T20:15:04.528Z,13.13
2018-06-23T20:17:31.685Z,6.83
2018-06-23T20:19:58.871Z,6.53
2018-06-23T20:22:26.063Z,5.90
2018-06-23T20:24:53.203Z,5.47
2018-06-23T20:27:20.311Z,4.93
2018-06-23T20:29:47.441Z,10.07
2018-06-23T20:32:14.716Z,4.57
2018-06-23T20:34:41.932Z,6.63
2018-06-23T20:37:09.052Z,7.93
2018-06-23T20:39:36.186Z,6.30
2018-06-23T20:42:03.307Z,7.50
2018-06-23T20:44:30.479Z,6.67
2018-06-23T20:46:57.655Z,8.23
2018-06-23T20:49:24.832Z,6.07
2018-06-23T20:51:51.972Z,5.60
2018-06-23T20:54:19.082Z,6.17
2018-06-23T20:56:46.240Z,7.60
2018-06-23T20:59:13.354Z,8.37
2018-06-23T21:01:40.953Z,5.10
2018-06-23T21:04:10.120Z,8.47
2018-06-23T21:06:37.441Z,5.13
2018-06-23T21:09:06.722Z,9.63
2018-06-23T21:11:33.892Z,8.47
2018-06-23T21:14:01.042Z,7.93
2018-06-23T21:16:28.218Z,11.80
2018-06-23T21:18:55.411Z,5.60
2018-06-23T21:21:22.574Z,6.00
2018-06-23T21:23:49.672Z,8.47
2018-06-23T21:26:16.818Z,3.87
2018-06-23T21:28:43.976Z,4.90
2018-06-23T21:31:11.141Z,9.83
2018-06-23T21:33:38.690Z,7.07
2018-06-23T21:36:06.247Z,8.63
2018-06-23T21:38:33.399Z,9.10
2018-06-23T21:41:00.635Z,7.60
2018-06-23T21:43:27.825Z,7.07
2018-06-23T21:45:55.313Z,11.97
2018-06-23T21:48:22.651Z,8.03
2018-06-23T21:50:49.997Z,13.00
2018-06-23T21:53:17.247Z,12.07
2018-06-23T21:55:44.530Z,10.77
2018-06-23T21:58:11.636Z,17.27
2018-06-23T22:00:40.248Z,13.30
2018-06-23T22:03:09.024Z,4.57
2018-06-23T22:05:36.163Z,12.97
2018-06-23T22:08:03.883Z,10.83
2018-06-23T22:10:31.182Z,7.40
2018-06-23T22:12:58.377Z,13.70
2018-06-23T22:15:25.687Z,8.87
2018-06-23T22:17:52.852Z,3.43
2018-06-23T22:20:20.212Z,8.10
2018-06-23T22:22:47.885Z,6.07
2018-06-23T22:25:15.300Z,9.67
2018-06-23T22:27:42.984Z,9.77
2018-06-23T22:30:10.153Z,9.00
2018-06-23T22:32:37.314Z,10.50
2018-06-23T22:35:04.448Z,11.80
2018-06-23T22:37:31.627Z,11.83
2018-06-23T22:39:58.763Z,5.60
2018-06-23T22:42:26.073Z,7.37
2018-06-23T22:44:53.212Z,7.20
2018-06-23T22:47:20.379Z,8.57
2018-06-23T22:49:47.518Z,5.90
2018-06-23T22:52:14.648Z,11.00
2018-06-23T22:54:41.784Z,7.20
2018-06-23T22:57:08.919Z,7.17
2018-06-23T22:59:36.055Z,6.33
2018-06-23T23:02:03.222Z,6.87
2018-06-23T23:04:30.410Z,5.83
2018-06-23T23:06:57.578Z,10.40
2018-06-23T23:09:24.979Z,5.10
2018-06-23T23:11:52.151Z,7.20
2018-06-23T23:14:19.324Z,6.30
2018-06-23T23:16:53.597Z,8.80
2018-06-23T23:19:21.015Z,3.63
2018-06-23T23:21:48.300Z,7.33
2018-06-23T23:24:15.575Z,8.10
2018-06-23T23:26:42.939Z,7.77
2018-06-23T23:29:10.412Z,8.23
2018-06-23T23:31:37.547Z,10.93
2018-06-23T23:34:04.968Z,10.40
2018-06-23T23:36:32.130Z,7.83
2018-06-23T23:38:59.274Z,4.20
2018-06-23T23:41:26.451Z,6.63
2018-06-23T23:43:53.580Z,8.30
2018-06-23T23:46:20.702Z,7.63
2018-06-23T23:48:47.866Z,12.47
2018-06-23T23:51:15.028Z,8.17
2018-06-23T23:53:42.140Z,7.33
2018-06-23T23:56:09.251Z,3.97
2018-06-23T23:58:36.372Z,10.87
